SAMR/AFA METAR and TAF weather

Enter ICAO airport designator
Station Type Date Time Source
SAMR METAR 2020/01/20 20:35 UTC NOAA

SAMR 202035Z 11015KT 9999 SCT025TCU FEW050CB 33/15 Q1009


Station Type Date Time Source
SAMR Decoded METAR 2020/01/20 20:35 UTC NOAA

San Rafael Aerodrome, Argentina (SAMR) 34-35S 068-24W 748M
Jan 20, 2020 - 03:35 PM EST / 2020.01.20 2035 UTC
Wind: from the ESE (110 degrees) at 17 MPH (15 KT):0
Visibility: greater than 7 mile(s):0
Sky conditions: partly cloudy
Weather: Cumulonimbus clouds, towering cumulus clouds observed
Temperature: 91 F (33 C)
Dew Point: 59 F (15 C)
Relative Humidity: 33%
Pressure (altimeter): 29.80 in. Hg (1009 hPa)
ob: SAMR 202035Z 11015KT 9999 SCT025TCU FEW050CB 33/15 Q1009
cycle: 20

Station Type Date Time Source
SAMR TAF 2019/08/18 18:03 UTC NOAA

TAF SAMR 181700Z 1818/1918 16010KT 9999 OVC030 SCT070 TX12/1819Z TN01/1911Z

Example: see airport list